createdAt,value
2022-10-19T00:01:15.964Z,12.30
2022-10-19T00:06:31.505Z,12.20
2022-10-19T00:09:04.250Z,12.10
2022-10-19T00:11:33.006Z,12.00
2022-10-19T00:14:00.856Z,12.00
2022-10-19T00:16:32.030Z,11.90
2022-10-19T00:19:01.162Z,11.80
2022-10-19T00:21:28.641Z,11.70
2022-10-19T00:23:55.557Z,11.60
2022-10-19T00:26:22.581Z,11.60
2022-10-19T00:28:49.278Z,11.60
2022-10-19T00:31:18.123Z,11.50
2022-10-19T00:33:46.954Z,11.50
2022-10-19T00:36:27.962Z,11.50
2022-10-19T00:38:58.545Z,11.40
2022-10-19T00:41:31.169Z,11.40
2022-10-19T00:44:27.777Z,11.40
2022-10-19T00:47:01.839Z,11.40
2022-10-19T00:49:36.343Z,11.30
2022-10-19T00:52:08.664Z,11.20
2022-10-19T00:54:38.934Z,11.20
2022-10-19T00:57:06.770Z,11.20
2022-10-19T00:59:34.502Z,11.20
2022-10-19T01:02:04.645Z,11.10
2022-10-19T01:04:35.230Z,11.10
2022-10-19T01:07:04.911Z,11.00
2022-10-19T01:09:31.593Z,10.90
2022-10-19T01:12:08.970Z,10.90
2022-10-19T01:15:04.216Z,10.90
2022-10-19T01:18:10.861Z,10.80
2022-10-19T01:20:50.218Z,10.80
2022-10-19T01:23:54.414Z,10.80
2022-10-19T01:26:47.550Z,10.70
2022-10-19T01:29:47.967Z,10.70
2022-10-19T01:32:40.720Z,10.60
2022-10-19T01:35:40.254Z,10.60
2022-10-19T01:38:39.518Z,10.60
2022-10-19T01:41:25.114Z,10.50
2022-10-19T01:44:24.966Z,10.50
2022-10-19T01:46:58.182Z,10.40
2022-10-19T01:49:59.125Z,10.40
2022-10-19T01:52:27.218Z,10.50
2022-10-19T01:55:00.606Z,10.50
2022-10-19T01:57:33.257Z,10.50
2022-10-19T02:00:07.133Z,10.60
2022-10-19T02:02:42.223Z,10.50
2022-10-19T02:05:11.361Z,10.50
2022-10-19T02:07:40.630Z,10.50
2022-10-19T02:10:08.120Z,10.50
2022-10-19T02:12:36.785Z,10.50
2022-10-19T02:15:14.378Z,10.50
2022-10-19T02:17:47.743Z,10.40
2022-10-19T02:20:15.887Z,10.40
2022-10-19T02:22:42.861Z,10.40
2022-10-19T02:25:10.537Z,10.30
2022-10-19T02:27:41.683Z,10.30
2022-10-19T02:30:14.969Z,10.20
2022-10-19T02:32:42.578Z,10.20
2022-10-19T02:35:11.295Z,10.20
2022-10-19T02:37:38.515Z,10.20
2022-10-19T02:40:06.574Z,10.10
2022-10-19T02:42:40.818Z,10.10
2022-10-19T02:45:28.442Z,10.10
2022-10-19T02:48:04.166Z,10.10
2022-10-19T02:50:31.122Z,10.10
2022-10-19T02:53:01.046Z,10.10
2022-10-19T02:55:30.180Z,10.00
2022-10-19T02:57:57.282Z,9.90
2022-10-19T03:00:23.915Z,9.90
2022-10-19T03:02:50.506Z,9.90
2022-10-19T03:05:17.150Z,9.90
2022-10-19T03:07:43.774Z,9.80
2022-10-19T03:10:10.402Z,9.80
2022-10-19T03:12:37.020Z,9.80
2022-10-19T03:15:04.673Z,9.80
2022-10-19T03:17:31.564Z,9.70
2022-10-19T03:19:58.347Z,9.70
2022-10-19T03:22:24.955Z,9.70
2022-10-19T03:24:51.546Z,9.60
2022-10-19T03:27:18.130Z,9.60
2022-10-19T03:29:44.742Z,9.50
2022-10-19T03:32:11.328Z,9.40
2022-10-19T03:34:37.928Z,9.40
2022-10-19T03:37:04.498Z,9.40
2022-10-19T03:39:31.115Z,9.40
2022-10-19T03:41:57.686Z,9.40
2022-10-19T03:44:24.303Z,9.30
2022-10-19T03:46:51.905Z,9.20
2022-10-19T03:49:18.818Z,9.20
2022-10-19T03:51:45.387Z,9.20
2022-10-19T03:54:16.416Z,9.10
2022-10-19T03:56:43.559Z,9.10
2022-10-19T03:59:14.542Z,9.00
2022-10-19T04:01:45.110Z,9.10
2022-10-19T04:04:16.182Z,9.10
2022-10-19T04:06:45.963Z,9.00
2022-10-19T04:09:15.796Z,9.00
2022-10-19T04:11:43.127Z,8.90
2022-10-19T04:14:19.007Z,8.90
2022-10-19T04:16:53.691Z,8.80
2022-10-19T04:19:20.289Z,8.80
2022-10-19T04:21:49.338Z,8.70
2022-10-19T04:24:18.412Z,8.60
2022-10-19T04:26:50.998Z,8.60
2022-10-19T04:29:20.003Z,8.60
2022-10-19T04:31:49.920Z,8.60
2022-10-19T04:34:17.581Z,8.50
2022-10-19T04:36:44.485Z,8.50
2022-10-19T04:39:11.386Z,8.40
2022-10-19T04:41:38.623Z,8.40
2022-10-19T04:44:08.921Z,8.30
2022-10-19T04:46:35.592Z,8.30
2022-10-19T04:49:04.153Z,8.30
2022-10-19T04:51:31.188Z,8.30
2022-10-19T04:53:59.533Z,8.30
2022-10-19T04:56:27.546Z,8.40
2022-10-19T04:58:56.693Z,8.40
2022-10-19T05:01:25.042Z,8.40
2022-10-19T05:03:58.028Z,8.40
2022-10-19T05:06:25.379Z,8.50
2022-10-19T05:08:52.454Z,8.40
2022-10-19T05:11:20.110Z,8.40
2022-10-19T05:13:47.593Z,8.40
2022-10-19T05:16:18.860Z,8.40
2022-10-19T05:18:58.863Z,8.40
2022-10-19T05:21:28.417Z,8.30
2022-10-19T05:23:56.683Z,8.40
2022-10-19T05:26:27.685Z,8.40
2022-10-19T05:28:57.851Z,8.40
2022-10-19T05:31:28.179Z,8.40
2022-10-19T05:33:56.194Z,8.40
2022-10-19T05:36:32.085Z,8.30
2022-10-19T05:39:01.665Z,8.30
2022-10-19T05:41:28.433Z,8.20
2022-10-19T05:43:59.049Z,8.20
2022-10-19T05:46:28.015Z,8.20
2022-10-19T05:48:58.941Z,8.20
2022-10-19T05:51:27.470Z,8.30
2022-10-19T05:53:55.695Z,8.30
2022-10-19T05:56:28.563Z,8.30
2022-10-19T05:58:57.342Z,8.40
2022-10-19T06:01:24.510Z,8.30
2022-10-19T06:03:53.316Z,8.30
2022-10-19T06:06:20.776Z,8.40
2022-10-19T06:08:48.551Z,8.30
2022-10-19T06:11:27.985Z,8.30
2022-10-19T06:13:58.119Z,8.30
2022-10-19T06:16:26.681Z,8.30
2022-10-19T06:18:54.048Z,8.30
2022-10-19T06:21:24.737Z,8.30
2022-10-19T06:23:56.937Z,8.30
2022-10-19T06:26:24.765Z,8.40
2022-10-19T06:29:00.154Z,8.40
2022-10-19T06:31:31.742Z,8.50
2022-10-19T06:33:58.545Z,8.50
2022-10-19T06:36:29.696Z,8.60
2022-10-19T06:38:56.948Z,8.60
2022-10-19T06:41:23.880Z,8.70
2022-10-19T06:43:52.287Z,8.70
2022-10-19T06:46:23.018Z,8.80
2022-10-19T06:48:55.485Z,8.90
2022-10-19T06:51:23.191Z,9.00
2022-10-19T06:53:52.870Z,9.10
2022-10-19T06:56:24.369Z,9.20
2022-10-19T06:58:51.196Z,9.40
2022-10-19T07:01:18.355Z,9.50
2022-10-19T07:03:45.124Z,9.70
2022-10-19T07:06:13.561Z,9.80
2022-10-19T07:08:42.440Z,9.90
2022-10-19T07:11:18.609Z,9.80
2022-10-19T07:13:45.373Z,9.70
2022-10-19T07:16:19.829Z,9.70
2022-10-19T07:18:52.189Z,9.70
2022-10-19T07:21:21.148Z,9.90
2022-10-19T07:23:48.265Z,10.10
2022-10-19T07:26:23.320Z,10.10
2022-10-19T07:28:50.552Z,10.30
2022-10-19T07:31:20.471Z,10.30
2022-10-19T07:33:51.814Z,10.50
2022-10-19T07:36:20.767Z,10.60
2022-10-19T07:38:47.469Z,10.60
2022-10-19T07:41:19.320Z,10.80
2022-10-19T07:43:47.683Z,11.00
2022-10-19T07:46:21.648Z,11.10
2022-10-19T07:48:49.669Z,11.10
2022-10-19T07:51:18.769Z,11.20
2022-10-19T07:53:45.825Z,11.30
2022-10-19T07:56:16.377Z,11.50
2022-10-19T07:58:43.597Z,11.70
2022-10-19T08:01:14.624Z,11.70
2022-10-19T08:04:48.644Z,11.90
2022-10-19T08:06:29.038Z,11.90
2022-10-19T08:08:56.223Z,11.90
2022-10-19T08:11:27.227Z,11.80
2022-10-19T08:13:55.349Z,12.00
2022-10-19T08:16:29.505Z,12.20
2022-10-19T08:19:00.219Z,12.40
2022-10-19T08:21:29.799Z,12.50
2022-10-19T08:23:57.076Z,12.70
2022-10-19T08:26:25.039Z,13.00
2022-10-19T08:28:51.829Z,13.50
2022-10-19T08:31:22.163Z,14.80
2022-10-19T08:33:52.001Z,14.80
2022-10-19T08:36:22.158Z,14.80
2022-10-19T08:38:49.654Z,14.50
2022-10-19T08:41:38.078Z,14.40
2022-10-19T08:44:29.750Z,14.60
2022-10-19T08:47:16.510Z,16.00
2022-10-19T08:49:45.635Z,16.60
2022-10-19T08:52:22.714Z,17.00
2022-10-19T08:54:57.118Z,16.90
2022-10-19T08:58:03.579Z,16.60
2022-10-19T09:00:49.595Z,16.40
2022-10-19T09:03:57.775Z,15.20
2022-10-19T09:07:01.587Z,14.50
2022-10-19T09:09:31.816Z,14.20
2022-10-19T09:12:06.184Z,13.80
2022-10-19T09:14:45.549Z,13.40
2022-10-19T09:17:16.769Z,13.20
2022-10-19T09:19:43.375Z,13.10
2022-10-19T09:22:25.701Z,13.00
2022-10-19T09:25:03.760Z,13.00
2022-10-19T09:27:41.020Z,12.70
2022-10-19T09:30:20.752Z,12.70
2022-10-19T09:32:52.156Z,12.60
2022-10-19T09:35:26.639Z,12.30
2022-10-19T09:37:54.915Z,12.40
2022-10-19T09:40:29.502Z,12.60
2022-10-19T09:42:58.186Z,12.60
2022-10-19T09:45:45.063Z,12.70
2022-10-19T09:48:50.556Z,12.90
2022-10-19T09:51:18.547Z,13.00
2022-10-19T09:53:53.206Z,13.10
2022-10-19T09:56:22.056Z,13.10
2022-10-19T09:58:52.380Z,12.90
2022-10-19T10:01:40.109Z,12.90
2022-10-19T10:04:17.932Z,12.90
2022-10-19T10:06:48.508Z,13.00
2022-10-19T10:09:25.780Z,12.90
2022-10-19T10:11:57.734Z,12.90
2022-10-19T10:14:32.963Z,12.90
2022-10-19T10:17:13.238Z,13.10
2022-10-19T10:19:52.231Z,13.10
2022-10-19T10:22:36.839Z,13.00
2022-10-19T10:25:17.117Z,13.10
2022-10-19T10:28:02.173Z,13.30
2022-10-19T10:30:35.276Z,13.40
2022-10-19T10:33:13.402Z,13.50
2022-10-19T10:35:53.443Z,13.50
2022-10-19T10:38:25.986Z,13.40
2022-10-19T10:41:00.037Z,13.30
2022-10-19T10:43:34.532Z,13.40
2022-10-19T10:46:15.044Z,13.60
2022-10-19T10:48:53.346Z,13.60
2022-10-19T10:51:54.429Z,13.50
2022-10-19T10:54:31.192Z,13.50
2022-10-19T10:57:16.694Z,13.60
2022-10-19T11:00:10.959Z,13.50
2022-10-19T11:02:58.428Z,13.60
2022-10-19T11:05:30.924Z,13.50
2022-10-19T11:08:18.667Z,13.50
2022-10-19T11:11:06.903Z,13.70
2022-10-19T11:13:48.863Z,13.90
2022-10-19T11:16:19.771Z,14.10
2022-10-19T11:18:52.897Z,14.20
2022-10-19T11:21:27.571Z,14.20
2022-10-19T11:24:10.452Z,14.30
2022-10-19T11:27:14.456Z,14.20
2022-10-19T11:29:47.081Z,14.20
2022-10-19T11:32:52.921Z,14.40
2022-10-19T11:35:34.846Z,14.50
2022-10-19T11:38:45.818Z,14.60
2022-10-19T11:41:29.716Z,14.60
2022-10-19T11:44:40.077Z,14.70
2022-10-19T11:48:04.642Z,14.60
2022-10-19T11:50:58.960Z,14.70
2022-10-19T11:54:02.839Z,14.70
2022-10-19T11:57:11.441Z,14.80
2022-10-19T12:00:33.888Z,14.90
2022-10-19T12:03:30.202Z,15.00
2022-10-19T12:06:21.534Z,15.00
2022-10-19T12:09:38.590Z,15.10
2022-10-19T12:12:25.144Z,15.00
2022-10-19T12:15:12.063Z,15.00
2022-10-19T12:17:42.177Z,15.00
2022-10-19T12:20:26.889Z,15.10
2022-10-19T12:22:54.162Z,15.20
2022-10-19T12:25:21.799Z,15.20
2022-10-19T12:27:50.593Z,15.10
2022-10-19T12:30:23.622Z,15.10
2022-10-19T12:33:13.870Z,15.00
2022-10-19T12:35:55.220Z,15.00
2022-10-19T12:38:49.487Z,15.10
2022-10-19T12:41:52.303Z,15.10
2022-10-19T12:44:48.711Z,15.10
2022-10-19T12:47:22.459Z,15.20
2022-10-19T12:49:50.713Z,15.20
2022-10-19T12:52:44.415Z,15.20
2022-10-19T12:55:26.805Z,15.30
2022-10-19T12:58:06.844Z,15.30
2022-10-19T13:00:37.622Z,15.30
2022-10-19T13:03:04.235Z,15.30
2022-10-19T13:05:32.982Z,15.20
2022-10-19T13:08:03.128Z,15.30
2022-10-19T13:10:32.094Z,15.20
2022-10-19T13:12:59.454Z,15.20
2022-10-19T13:15:35.051Z,15.20
2022-10-19T13:18:12.952Z,15.10
2022-10-19T13:23:06.985Z,15.10
2022-10-19T13:25:35.737Z,15.10
2022-10-19T13:28:28.208Z,15.10
2022-10-19T13:31:06.081Z,15.10
2022-10-19T13:33:45.739Z,15.10
2022-10-19T13:36:12.682Z,15.10
2022-10-19T13:38:46.935Z,15.10
2022-10-19T13:41:22.549Z,15.10
2022-10-19T13:44:01.070Z,15.10
2022-10-19T13:46:30.625Z,15.10
2022-10-19T13:49:21.978Z,15.10
2022-10-19T13:52:03.572Z,15.10
2022-10-19T13:54:57.329Z,15.10
2022-10-19T13:57:54.712Z,15.10
2022-10-19T14:00:25.288Z,15.10
2022-10-19T14:03:31.125Z,15.10
2022-10-19T14:06:27.559Z,15.20
2022-10-19T14:09:29.710Z,15.20
2022-10-19T14:12:07.348Z,15.30
2022-10-19T14:14:44.401Z,15.20
2022-10-19T14:17:20.544Z,15.20
2022-10-19T14:19:52.196Z,15.20
2022-10-19T14:22:33.742Z,15.10
2022-10-19T14:25:07.376Z,15.00
2022-10-19T14:27:35.101Z,15.00
2022-10-19T14:30:02.726Z,15.00
2022-10-19T14:32:34.241Z,15.00
2022-10-19T14:35:20.195Z,14.90
2022-10-19T14:37:47.031Z,14.90
2022-10-19T14:40:32.095Z,15.00
2022-10-19T14:43:01.127Z,14.90
2022-10-19T14:45:32.098Z,14.80
2022-10-19T14:48:05.543Z,14.80
2022-10-19T14:50:48.799Z,14.80
2022-10-19T14:54:17.283Z,14.70
2022-10-19T14:57:08.746Z,14.60
2022-10-19T15:00:01.584Z,14.60
2022-10-19T15:02:37.515Z,14.60
2022-10-19T15:05:06.851Z,14.60
2022-10-19T15:07:42.184Z,14.60
2022-10-19T15:10:24.691Z,14.60
2022-10-19T15:13:03.440Z,14.50
2022-10-19T15:15:33.951Z,14.50
2022-10-19T15:18:00.587Z,14.40
2022-10-19T15:20:44.126Z,14.40
2022-10-19T15:23:42.991Z,14.30
2022-10-19T15:26:24.543Z,14.30
2022-10-19T15:28:51.876Z,14.30
2022-10-19T15:31:24.803Z,14.30
2022-10-19T15:33:58.527Z,14.20
2022-10-19T15:36:26.603Z,14.10
2022-10-19T15:39:33.039Z,14.10
2022-10-19T15:42:38.782Z,14.00
2022-10-19T15:45:09.177Z,14.00
2022-10-19T15:47:36.024Z,13.90
2022-10-19T15:50:02.962Z,13.80
2022-10-19T15:52:33.462Z,13.80
2022-10-19T15:55:01.582Z,13.70
2022-10-19T15:57:35.220Z,13.70
2022-10-19T16:00:17.590Z,13.70
2022-10-19T16:02:44.529Z,13.60
2022-10-19T16:05:11.665Z,13.50
2022-10-19T16:07:41.078Z,13.50
2022-10-19T16:10:15.562Z,13.40
2022-10-19T16:12:42.372Z,13.40
2022-10-19T16:15:13.657Z,13.40
2022-10-19T16:17:40.526Z,13.30
2022-10-19T16:20:09.990Z,13.30
2022-10-19T16:22:36.621Z,13.30
2022-10-19T16:25:04.034Z,13.30
2022-10-19T16:27:30.637Z,13.30
2022-10-19T16:29:57.252Z,13.30
2022-10-19T16:32:23.838Z,13.30
2022-10-19T16:34:50.401Z,13.30
2022-10-19T16:37:16.954Z,13.30
2022-10-19T16:39:43.529Z,13.20
2022-10-19T16:42:10.206Z,13.20
2022-10-19T16:44:36.769Z,13.20
2022-10-19T16:47:03.875Z,13.10
2022-10-19T16:49:32.128Z,13.00
2022-10-19T16:52:00.455Z,13.00
2022-10-19T16:54:29.779Z,12.90
2022-10-19T16:56:56.408Z,12.80
2022-10-19T16:59:22.993Z,12.80
2022-10-19T17:01:50.122Z,12.70
2022-10-19T17:04:17.932Z,12.70
2022-10-19T17:06:44.686Z,12.60
2022-10-19T17:11:57.988Z,12.60
2022-10-19T17:14:24.562Z,12.50
2022-10-19T17:16:51.162Z,12.50
2022-10-19T17:19:17.804Z,12.50
2022-10-19T17:21:44.387Z,12.50
2022-10-19T17:24:21.057Z,12.50
2022-10-19T17:26:50.234Z,12.70
2022-10-19T17:29:17.179Z,12.70
2022-10-19T17:31:44.075Z,12.60
2022-10-19T17:34:11.175Z,12.70
2022-10-19T17:36:44.559Z,12.70
2022-10-19T17:39:17.716Z,12.70
2022-10-19T17:41:46.312Z,12.70
2022-10-19T17:44:13.127Z,12.70
2022-10-19T17:46:39.699Z,12.70
2022-10-19T17:49:06.631Z,12.60
2022-10-19T17:51:36.062Z,12.60
2022-10-19T17:54:13.204Z,12.50
2022-10-19T17:56:45.200Z,12.50
2022-10-19T17:59:12.913Z,12.50
2022-10-19T18:01:39.910Z,12.50
2022-10-19T18:04:06.719Z,12.50
2022-10-19T18:06:36.447Z,12.40
2022-10-19T18:09:06.557Z,12.40
2022-10-19T18:11:43.035Z,12.50
2022-10-19T18:14:11.889Z,12.50
2022-10-19T18:16:45.399Z,12.50
2022-10-19T18:19:14.943Z,12.50
2022-10-19T18:21:44.114Z,12.50
2022-10-19T18:24:19.907Z,12.40
2022-10-19T18:26:48.634Z,12.40
2022-10-19T18:29:20.299Z,12.30
2022-10-19T18:31:52.091Z,12.20
2022-10-19T18:34:23.191Z,12.10
2022-10-19T18:36:50.495Z,12.00
2022-10-19T18:39:18.040Z,11.90
2022-10-19T18:41:44.795Z,11.80
2022-10-19T18:44:13.304Z,11.70
2022-10-19T18:46:40.322Z,11.60
2022-10-19T18:49:08.593Z,11.50
2022-10-19T18:51:36.018Z,11.40
2022-10-19T18:54:11.929Z,11.30
2022-10-19T18:56:38.547Z,11.20
2022-10-19T18:59:05.493Z,11.10
2022-10-19T19:01:32.453Z,11.10
2022-10-19T19:04:07.145Z,11.00
2022-10-19T19:06:36.060Z,10.90
2022-10-19T19:09:07.703Z,10.80
2022-10-19T19:11:37.396Z,10.80
2022-10-19T19:14:10.100Z,10.70
2022-10-19T19:16:38.800Z,10.70
2022-10-19T19:19:07.104Z,10.60
2022-10-19T19:21:36.303Z,10.60
2022-10-19T19:24:16.350Z,10.50
2022-10-19T19:26:48.253Z,10.30
2022-10-19T19:29:15.943Z,10.30
2022-10-19T19:31:42.689Z,10.20
2022-10-19T19:34:09.687Z,10.20
2022-10-19T19:36:38.407Z,10.10
2022-10-19T19:39:05.315Z,10.10
2022-10-19T19:41:33.958Z,10.10
2022-10-19T19:44:00.743Z,10.00
2022-10-19T19:46:27.407Z,9.90
2022-10-19T19:49:03.375Z,9.90
2022-10-19T19:51:31.843Z,9.80
2022-10-19T19:53:59.585Z,9.80
2022-10-19T19:56:26.817Z,9.70
2022-10-19T19:58:59.239Z,9.60
2022-10-19T20:01:27.015Z,9.50
2022-10-19T20:03:53.850Z,9.50
2022-10-19T20:06:23.696Z,9.40
2022-10-19T20:08:53.286Z,9.40
2022-10-19T20:11:19.996Z,9.40
2022-10-19T20:13:46.578Z,9.40
2022-10-19T20:16:16.927Z,9.40
2022-10-19T20:18:46.886Z,9.40
2022-10-19T20:21:14.719Z,9.30
2022-10-19T20:23:45.540Z,9.20
2022-10-19T20:26:23.571Z,9.20
2022-10-19T20:28:50.931Z,9.10
2022-10-19T20:31:18.770Z,9.10
2022-10-19T20:33:47.329Z,9.00
2022-10-19T20:36:20.062Z,9.00
2022-10-19T20:38:49.753Z,9.10
2022-10-19T20:41:18.926Z,9.00
2022-10-19T20:43:45.687Z,9.00
2022-10-19T20:46:20.870Z,9.00
2022-10-19T20:48:48.009Z,8.90
2022-10-19T20:51:21.318Z,8.90
2022-10-19T20:53:50.442Z,8.90
2022-10-19T20:56:23.553Z,8.90
2022-10-19T20:59:00.070Z,8.90
2022-10-19T21:01:29.618Z,9.00
2022-10-19T21:04:00.369Z,9.00
2022-10-19T21:06:30.625Z,9.10
2022-10-19T21:08:59.209Z,9.10
2022-10-19T21:11:32.139Z,9.20
2022-10-19T21:14:02.629Z,9.20
2022-10-19T21:16:33.421Z,9.20
2022-10-19T21:19:01.978Z,9.20
2022-10-19T21:21:35.278Z,9.30
2022-10-19T21:24:19.087Z,9.30
2022-10-19T21:26:47.181Z,9.30
2022-10-19T21:29:15.874Z,9.40
2022-10-19T21:31:48.644Z,9.40
2022-10-19T21:34:27.967Z,9.50
2022-10-19T21:36:55.645Z,9.50
2022-10-19T21:39:22.782Z,9.60
2022-10-19T21:41:49.891Z,9.60
2022-10-19T21:44:18.154Z,9.70
2022-10-19T21:46:47.303Z,9.80
2022-10-19T21:49:14.034Z,9.80
2022-10-19T21:51:53.821Z,10.00
2022-10-19T21:54:24.753Z,9.90
2022-10-19T21:56:52.959Z,9.90
2022-10-19T21:59:19.584Z,9.90
2022-10-19T22:01:46.202Z,10.00
2022-10-19T22:04:17.616Z,10.10
2022-10-19T22:06:45.242Z,10.10
2022-10-19T22:09:17.091Z,10.20
2022-10-19T22:11:44.292Z,10.20
2022-10-19T22:14:14.155Z,10.30
2022-10-19T22:16:41.670Z,10.20
2022-10-19T22:19:09.807Z,10.30
2022-10-19T22:24:14.355Z,10.30
2022-10-19T22:26:50.481Z,10.40
2022-10-19T22:29:17.386Z,10.40
2022-10-19T22:31:44.151Z,10.40
2022-10-19T22:34:16.583Z,10.40
2022-10-19T22:36:44.588Z,10.30
2022-10-19T22:39:12.136Z,10.40
2022-10-19T22:41:38.753Z,10.40
2022-10-19T22:44:05.661Z,10.40
2022-10-19T22:46:32.388Z,10.40
2022-10-19T22:48:59.110Z,10.50
2022-10-19T22:51:26.131Z,10.60
2022-10-19T22:53:52.729Z,10.60
2022-10-19T22:56:19.310Z,10.60
2022-10-19T22:58:45.895Z,10.60
2022-10-19T23:01:15.276Z,10.60
2022-10-19T23:03:42.567Z,10.60
2022-10-19T23:06:12.575Z,10.60
2022-10-19T23:08:39.797Z,10.50
2022-10-19T23:11:07.378Z,10.50
2022-10-19T23:13:34.011Z,10.50
2022-10-19T23:16:00.572Z,10.50
2022-10-19T23:18:27.247Z,10.50
2022-10-19T23:20:59.484Z,10.50
2022-10-19T23:23:28.052Z,10.50
2022-10-19T23:26:18.447Z,10.50
2022-10-19T23:28:48.000Z,10.50
2022-10-19T23:31:26.373Z,10.50
2022-10-19T23:33:53.836Z,10.40
2022-10-19T23:36:27.586Z,10.40
2022-10-19T23:38:56.704Z,10.30
2022-10-19T23:41:24.019Z,10.30
2022-10-19T23:43:50.931Z,10.30
2022-10-19T23:46:17.591Z,10.20
2022-10-19T23:48:44.276Z,10.10
2022-10-19T23:51:18.466Z,10.10
2022-10-19T23:53:47.575Z,10.00
2022-10-19T23:56:20.518Z,9.90
2022-10-19T23:58:47.811Z,9.90
